Time;durP1;ratioP1;P1;durP2;ratioP2;P2;SDS_P1;SDS_P2;PMS_P1;PMS_P2;Temp;Humidity;BMP_temperature;BMP_pressure;BME280_temperature;BME280_humidity;BME280_pressure;Samples;Min_cycle;Max_cycle;Signal;HPM_P1;HPM_P2
2023/08/21 00:01:34;;;;;;;;;;;23.70;99.90;;;;;;5074054;28;19970;-67
2023/08/21 00:04:03;;;;;;;;;;;23.50;99.90;;;;;;5074971;28;19978;-65
2023/08/21 00:06:31;;;;;;;;;;;23.50;99.90;;;;;;5075140;28;19954;-65
2023/08/21 00:08:59;;;;;;;;;;;23.60;99.90;;;;;;5077079;28;20432;-65
2023/08/21 00:11:26;;;;;;;;;;;23.60;99.90;;;;;;5075170;28;20423;-66
2023/08/21 00:13:54;;;;;;;;;;;23.50;99.90;;;;;;5075252;28;19971;-65
2023/08/21 00:16:22;;;;;;;;;;;23.40;99.90;;;;;;5069452;28;19962;-65
2023/08/21 00:18:50;;;;;;;;;;;23.50;99.90;;;;;;5075108;28;20461;-66
2023/08/21 00:21:20;;;;;;;;;;;23.40;99.90;;;;;;5075267;28;20016;-65
2023/08/21 00:23:47;;;;;;;;;;;23.30;99.90;;;;;;5075245;28;19973;-65
2023/08/21 00:26:15;;;;;;;;;;;23.30;99.90;;;;;;5075209;28;19966;-66
2023/08/21 00:28:43;;;;;;;;;;;23.20;99.90;;;;;;5075789;28;19932;-65
2023/08/21 00:31:11;;;;;;;;;;;23.20;99.90;;;;;;5076309;28;20340;-65
2023/08/21 00:33:38;;;;;;;;;;;23.20;99.90;;;;;;5074751;28;20388;-65
2023/08/21 00:36:06;;;;;;;;;;;23.30;99.90;;;;;;5074794;28;19965;-66
2023/08/21 00:38:35;;;;;;;;;;;23.20;99.90;;;;;;5074711;28;20329;-65
2023/08/21 00:41:03;;;;;;;;;;;23.20;99.90;;;;;;5071850;28;19962;-65
2023/08/21 00:43:31;;;;;;;;;;;23.20;99.90;;;;;;5075168;28;20004;-65
2023/08/21 00:45:59;;;;;;;;;;;23.40;99.90;;;;;;5074838;28;19964;-66
2023/08/21 00:48:27;;;;;;;;;;;23.50;99.90;;;;;;5070488;28;19967;-66
2023/08/21 00:50:55;;;;;;;;;;;23.50;99.90;;;;;;5076963;28;19962;-66
2023/08/21 00:53:23;;;;;;;;;;;23.50;99.90;;;;;;5075134;28;19962;-66
2023/08/21 00:55:52;;;;;;;;;;;23.60;99.90;;;;;;5075051;28;19966;-67
2023/08/21 00:58:20;;;;;;;;;;;23.60;99.90;;;;;;5074722;28;20345;-66
2023/08/21 01:00:49;;;;;;;;;;;23.60;99.90;;;;;;5075801;28;19925;-65
2023/08/21 01:03:17;;;;;;;;;;;23.60;99.90;;;;;;5075687;28;19956;-66
2023/08/21 01:05:45;;;;;;;;;;;23.60;99.90;;;;;;5074969;28;19967;-65
2023/08/21 01:08:16;;;;;;;;;;;23.60;99.90;;;;;;5074535;28;19971;-65
2023/08/21 01:10:45;;;;;;;;;;;23.60;99.90;;;;;;5075242;28;19968;-65
2023/08/21 01:13:20;;;;;;;;;;;23.70;99.90;;;;;;5076254;28;19961;-65
2023/08/21 01:15:51;;;;;;;;;;;23.60;99.90;;;;;;5074803;28;20033;-65
2023/08/21 01:18:19;;;;;;;;;;;23.50;99.90;;;;;;5074547;28;20402;-65
2023/08/21 01:20:47;;;;;;;;;;;23.60;99.90;;;;;;5076061;28;19967;-65
2023/08/21 01:23:28;;;;;;;;;;;23.50;99.90;;;;;;5076455;28;19966;-65
2023/08/21 01:25:56;;;;;;;;;;;23.40;99.90;;;;;;5074896;28;20541;-65
2023/08/21 01:28:24;;;;;;;;;;;23.30;99.90;;;;;;5074518;28;19971;-65
2023/08/21 01:30:53;;;;;;;;;;;23.20;99.90;;;;;;5076958;28;19996;-65
2023/08/21 01:33:22;;;;;;;;;;;23.20;99.90;;;;;;5075840;28;20417;-65
2023/08/21 01:35:50;;;;;;;;;;;23.20;99.90;;;;;;5074981;28;20020;-65
2023/08/21 01:38:18;;;;;;;;;;;23.20;99.90;;;;;;5074420;28;19967;-65
2023/08/21 01:40:49;;;;;;;;;;;23.30;99.90;;;;;;5075827;28;20452;-65
2023/08/21 01:43:16;;;;;;;;;;;23.30;99.90;;;;;;5076621;28;19969;-65
2023/08/21 01:45:44;;;;;;;;;;;23.30;99.90;;;;;;5075018;28;19974;-65
2023/08/21 01:48:12;;;;;;;;;;;23.30;99.90;;;;;;5074453;28;19978;-65
2023/08/21 01:50:40;;;;;;;;;;;23.30;99.90;;;;;;5075598;28;19970;-65
2023/08/21 01:53:07;;;;;;;;;;;23.40;99.90;;;;;;5077949;28;20428;-65
2023/08/21 01:55:35;;;;;;;;;;;23.30;99.90;;;;;;5075150;28;20012;-65
2023/08/21 01:58:04;;;;;;;;;;;23.30;99.90;;;;;;5074968;28;20016;-66
2023/08/21 02:00:32;;;;;;;;;;;23.20;99.90;;;;;;5073097;28;19963;-66
2023/08/21 02:03:00;;;;;;;;;;;23.20;99.90;;;;;;5078059;28;19973;-65
2023/08/21 02:05:28;;;;;;;;;;;23.20;99.90;;;;;;5075186;28;19967;-65
2023/08/21 02:07:56;;;;;;;;;;;23.20;99.90;;;;;;5078221;28;19967;-66
2023/08/21 02:10:24;;;;;;;;;;;23.20;99.90;;;;;;5074605;28;19966;-65
2023/08/21 02:12:51;;;;;;;;;;;23.10;99.90;;;;;;5077810;28;20357;-66
2023/08/21 02:15:21;;;;;;;;;;;23.10;99.90;;;;;;5080969;28;20372;-65
2023/08/21 02:17:49;;;;;;;;;;;23.10;99.90;;;;;;5078537;28;19967;-65
2023/08/21 02:20:17;;;;;;;;;;;23.00;99.90;;;;;;5078416;28;20064;-65
2023/08/21 02:22:45;;;;;;;;;;;23.20;99.90;;;;;;5080074;28;19970;-65
2023/08/21 02:25:13;;;;;;;;;;;23.30;99.90;;;;;;5081680;28;19962;-65
2023/08/21 02:27:40;;;;;;;;;;;23.20;99.90;;;;;;5079009;28;19963;-65
2023/08/21 02:30:08;;;;;;;;;;;23.20;99.90;;;;;;5078480;28;20406;-65
2023/08/21 02:32:40;;;;;;;;;;;23.20;99.90;;;;;;5075128;28;20421;-65
2023/08/21 02:35:08;;;;;;;;;;;23.10;99.90;;;;;;5075242;28;20049;-65
2023/08/21 02:37:38;;;;;;;;;;;23.10;99.90;;;;;;5070891;28;20393;-65
2023/08/21 02:40:08;;;;;;;;;;;23.10;99.90;;;;;;5078421;28;20457;-65
2023/08/21 02:42:36;;;;;;;;;;;23.10;99.90;;;;;;5075492;28;20375;-65
2023/08/21 02:45:08;;;;;;;;;;;23.00;99.90;;;;;;5073875;28;19989;-65
2023/08/21 02:47:37;;;;;;;;;;;22.80;99.90;;;;;;5073052;28;20469;-65
2023/08/21 02:50:05;;;;;;;;;;;22.70;99.90;;;;;;5078465;28;19973;-65
2023/08/21 02:52:34;;;;;;;;;;;22.60;99.90;;;;;;5078752;28;19956;-65
2023/08/21 02:55:02;;;;;;;;;;;22.60;99.90;;;;;;5082339;28;19962;-65
2023/08/21 02:57:30;;;;;;;;;;;22.60;99.90;;;;;;5079337;28;19966;-65
2023/08/21 02:59:58;;;;;;;;;;;22.50;99.90;;;;;;5077909;28;20033;-65
2023/08/21 03:02:26;;;;;;;;;;;22.50;99.90;;;;;;5079198;28;20440;-66
2023/08/21 03:04:55;;;;;;;;;;;22.60;99.90;;;;;;5081060;28;19967;-66
2023/08/21 03:07:23;;;;;;;;;;;22.50;99.90;;;;;;5080397;28;19960;-65
2023/08/21 03:09:51;;;;;;;;;;;22.50;99.90;;;;;;5078408;28;20425;-66
2023/08/21 03:12:18;;;;;;;;;;;22.50;99.90;;;;;;5078628;28;19964;-65
2023/08/21 03:14:47;;;;;;;;;;;22.50;99.90;;;;;;5079959;28;20017;-66
2023/08/21 03:17:14;;;;;;;;;;;22.40;99.90;;;;;;5081397;28;19962;-66
2023/08/21 03:19:42;;;;;;;;;;;22.30;99.90;;;;;;5078300;28;20217;-65
2023/08/21 03:22:11;;;;;;;;;;;22.20;99.90;;;;;;5078839;28;20021;-65
2023/08/21 03:24:39;;;;;;;;;;;22.20;99.90;;;;;;5074274;28;19966;-66
2023/08/21 03:27:07;;;;;;;;;;;22.10;99.90;;;;;;5082110;28;20359;-66
2023/08/21 03:29:34;;;;;;;;;;;22.20;99.90;;;;;;5077947;28;19977;-65
2023/08/21 03:32:02;;;;;;;;;;;22.10;99.90;;;;;;5078558;28;19968;-65
2023/08/21 03:34:30;;;;;;;;;;;22.20;99.90;;;;;;5077967;28;19960;-65
2023/08/21 03:36:58;;;;;;;;;;;22.20;99.90;;;;;;5081729;28;19977;-65
2023/08/21 03:39:27;;;;;;;;;;;22.40;99.90;;;;;;5080273;28;19963;-67
2023/08/21 03:41:55;;;;;;;;;;;22.40;99.90;;;;;;5078339;28;20036;-66
2023/08/21 03:44:22;;;;;;;;;;;22.40;99.90;;;;;;5078569;28;19966;-66
2023/08/21 03:46:50;;;;;;;;;;;22.60;99.90;;;;;;5080358;28;20016;-66
2023/08/21 03:49:18;;;;;;;;;;;22.50;99.90;;;;;;5081410;28;20431;-66
2023/08/21 03:51:47;;;;;;;;;;;22.60;99.90;;;;;;5078456;28;19971;-67
2023/08/21 03:54:15;;;;;;;;;;;22.70;99.90;;;;;;5078608;28;19971;-67
2023/08/21 03:56:44;;;;;;;;;;;22.70;99.90;;;;;;5076464;28;20522;-68
2023/08/21 03:59:12;;;;;;;;;;;22.70;99.90;;;;;;5081336;28;20049;-67
2023/08/21 04:01:40;;;;;;;;;;;22.60;99.90;;;;;;5078835;28;20383;-66
2023/08/21 04:04:07;;;;;;;;;;;22.50;99.90;;;;;;5078365;28;19967;-66
2023/08/21 04:06:35;;;;;;;;;;;22.60;99.90;;;;;;5073294;28;19967;-66
2023/08/21 04:09:05;;;;;;;;;;;22.60;99.90;;;;;;5071293;28;19966;-66
2023/08/21 04:11:33;;;;;;;;;;;22.60;99.90;;;;;;5082730;28;20007;-66
2023/08/21 04:14:03;;;;;;;;;;;22.40;99.90;;;;;;5068785;28;19981;-66
2023/08/21 04:16:30;;;;;;;;;;;22.30;99.90;;;;;;5060840;28;19982;-65
2023/08/21 04:18:58;;;;;;;;;;;22.20;99.90;;;;;;5059436;28;19970;-65
2023/08/21 04:21:26;;;;;;;;;;;22.20;99.90;;;;;;5060608;28;20761;-65
2023/08/21 04:23:54;;;;;;;;;;;22.20;99.90;;;;;;5056964;28;19975;-65
2023/08/21 04:26:22;;;;;;;;;;;22.10;99.90;;;;;;5057837;28;20453;-65
2023/08/21 04:28:49;;;;;;;;;;;22.10;99.90;;;;;;5059547;28;19965;-67
2023/08/21 04:31:18;;;;;;;;;;;21.90;99.90;;;;;;5060932;28;19971;-65
2023/08/21 04:33:46;;;;;;;;;;;22.00;99.90;;;;;;5059750;28;20107;-65
2023/08/21 04:36:17;;;;;;;;;;;22.00;99.90;;;;;;5060424;28;20458;-68
2023/08/21 04:38:45;;;;;;;;;;;22.00;99.90;;;;;;5060292;28;19928;-67
2023/08/21 04:41:13;;;;;;;;;;;22.00;99.90;;;;;;5060484;28;20502;-66
2023/08/21 04:43:40;;;;;;;;;;;22.10;99.90;;;;;;5056576;28;19965;-65
2023/08/21 04:46:08;;;;;;;;;;;22.30;99.90;;;;;;5060377;28;19994;-67
2023/08/21 04:48:37;;;;;;;;;;;22.40;99.90;;;;;;5060191;28;20019;-67
2023/08/21 04:51:05;;;;;;;;;;;22.40;99.90;;;;;;5060338;28;19940;-65
2023/08/21 04:53:33;;;;;;;;;;;22.50;99.90;;;;;;5058370;28;20400;-66
2023/08/21 04:56:01;;;;;;;;;;;22.40;99.90;;;;;;5057944;28;19977;-65
2023/08/21 04:58:28;;;;;;;;;;;22.40;99.90;;;;;;5058748;28;19967;-65
2023/08/21 05:00:56;;;;;;;;;;;22.50;99.90;;;;;;5057747;28;19932;-65
2023/08/21 05:03:24;;;;;;;;;;;22.40;99.90;;;;;;5055558;28;20001;-64
2023/08/21 05:05:57;;;;;;;;;;;22.50;99.90;;;;;;5058449;28;19973;-66
2023/08/21 05:08:25;;;;;;;;;;;22.50;99.90;;;;;;5059792;28;19965;-65
2023/08/21 05:10:56;;;;;;;;;;;22.40;99.90;;;;;;5059603;28;19938;-64
2023/08/21 05:13:25;;;;;;;;;;;22.50;99.90;;;;;;5057482;28;19969;-69
2023/08/21 05:15:55;;;;;;;;;;;22.60;99.90;;;;;;5058036;28;23469;-65
2023/08/21 05:18:24;;;;;;;;;;;22.50;99.90;;;;;;5059600;28;19969;-65
2023/08/21 05:20:54;;;;;;;;;;;22.50;99.90;;;;;;5058808;28;20019;-65
2023/08/21 05:23:24;;;;;;;;;;;22.50;99.90;;;;;;5056533;28;19932;-65
2023/08/21 05:25:51;;;;;;;;;;;22.40;99.90;;;;;;5057901;28;20652;-66
2023/08/21 05:28:19;;;;;;;;;;;22.40;99.90;;;;;;5068371;28;19962;-66
2023/08/21 05:30:47;;;;;;;;;;;22.40;99.90;;;;;;5067641;28;20464;-65
2023/08/21 05:33:15;;;;;;;;;;;22.40;99.90;;;;;;5068697;28;20008;-65
2023/08/21 05:35:43;;;;;;;;;;;22.40;99.90;;;;;;5068261;28;19969;-65
2023/08/21 05:38:11;;;;;;;;;;;22.60;99.90;;;;;;5069665;28;19963;-66
2023/08/21 05:40:40;;;;;;;;;;;22.80;99.90;;;;;;5068283;28;20146;-66
2023/08/21 05:43:09;;;;;;;;;;;22.80;99.90;;;;;;5068297;28;19971;-65
2023/08/21 05:45:36;;;;;;;;;;;22.90;99.90;;;;;;5067372;28;19967;-67
2023/08/21 05:48:04;;;;;;;;;;;23.00;99.90;;;;;;5067301;28;19967;-66
2023/08/21 05:50:32;;;;;;;;;;;23.00;99.90;;;;;;5068233;28;20432;-66
2023/08/21 05:53:01;;;;;;;;;;;23.10;99.90;;;;;;5067813;28;19969;-67
2023/08/21 05:55:29;;;;;;;;;;;23.10;99.90;;;;;;5070779;28;19966;-64
2023/08/21 05:57:58;;;;;;;;;;;23.10;99.90;;;;;;5070335;28;19971;-66
2023/08/21 06:00:26;;;;;;;;;;;23.20;99.90;;;;;;5071027;28;19966;-66
2023/08/21 06:02:54;;;;;;;;;;;23.20;99.90;;;;;;5056219;28;20016;-66
2023/08/21 06:05:21;;;;;;;;;;;23.30;99.90;;;;;;5075437;28;19963;-66
2023/08/21 06:07:49;;;;;;;;;;;23.30;99.90;;;;;;5070064;28;19980;-66
2023/08/21 06:10:17;;;;;;;;;;;23.20;99.90;;;;;;5064171;28;20009;-69
2023/08/21 06:12:45;;;;;;;;;;;23.20;99.90;;;;;;5066297;28;19980;-69
2023/08/21 06:15:14;;;;;;;;;;;23.10;99.90;;;;;;5066458;28;19962;-69
2023/08/21 06:17:42;;;;;;;;;;;23.20;99.90;;;;;;5066103;28;19978;-69
2023/08/21 06:20:10;;;;;;;;;;;23.30;99.90;;;;;;5067808;28;19967;-68
2023/08/21 06:22:38;;;;;;;;;;;23.30;99.90;;;;;;5065538;28;20275;-69
2023/08/21 06:25:06;;;;;;;;;;;23.30;99.90;;;;;;5067835;28;20371;-67
2023/08/21 06:27:34;;;;;;;;;;;23.40;99.90;;;;;;5069869;28;20444;-69
2023/08/21 06:30:20;;;;;;;;;;;23.50;99.90;;;;;;5069405;28;19962;-69
2023/08/21 06:32:48;;;;;;;;;;;23.60;99.90;;;;;;5068086;28;19970;-68
2023/08/21 06:35:16;;;;;;;;;;;23.70;99.90;;;;;;5071008;28;20310;-69
2023/08/21 06:37:44;;;;;;;;;;;23.70;99.90;;;;;;5070345;28;20441;-69
2023/08/21 06:40:12;;;;;;;;;;;23.90;99.90;;;;;;5069607;28;19966;-69
2023/08/21 06:42:40;;;;;;;;;;;24.00;99.90;;;;;;5070669;28;19967;-69
2023/08/21 06:45:08;;;;;;;;;;;24.10;99.90;;;;;;5070898;28;19963;-69
2023/08/21 06:47:37;;;;;;;;;;;24.20;99.90;;;;;;5070791;28;20363;-67
2023/08/21 06:50:05;;;;;;;;;;;24.30;99.90;;;;;;5070703;28;20366;-69
2023/08/21 06:52:33;;;;;;;;;;;24.40;99.90;;;;;;5070736;28;19963;-68
2023/08/21 06:55:01;;;;;;;;;;;24.60;99.90;;;;;;5062636;28;19966;-69
2023/08/21 06:57:29;;;;;;;;;;;24.70;99.90;;;;;;5070183;28;20454;-69
2023/08/21 06:59:56;;;;;;;;;;;24.80;99.90;;;;;;5072470;28;20409;-68
2023/08/21 07:02:24;;;;;;;;;;;24.90;99.90;;;;;;5074080;28;20460;-69
2023/08/21 07:04:53;;;;;;;;;;;25.00;99.90;;;;;;5074094;28;19975;-69
2023/08/21 07:07:21;;;;;;;;;;;25.10;99.90;;;;;;5073723;28;20036;-69
2023/08/21 07:09:51;;;;;;;;;;;25.10;99.90;;;;;;5073736;28;19989;-69
2023/08/21 07:12:18;;;;;;;;;;;25.10;99.90;;;;;;5074046;28;19969;-69
2023/08/21 07:14:46;;;;;;;;;;;25.20;99.90;;;;;;5073786;28;19966;-69
2023/08/21 07:17:14;;;;;;;;;;;25.30;99.90;;;;;;5073547;28;19962;-69
2023/08/21 07:19:42;;;;;;;;;;;25.40;99.90;;;;;;5073602;28;19963;-69
2023/08/21 07:22:15;;;;;;;;;;;25.60;99.90;;;;;;5073906;28;19962;-68
2023/08/21 07:24:43;;;;;;;;;;;25.60;99.90;;;;;;5073599;28;19969;-69
2023/08/21 07:27:10;;;;;;;;;;;25.80;99.90;;;;;;5073733;28;19977;-69
2023/08/21 07:29:38;;;;;;;;;;;25.80;99.90;;;;;;5073434;28;19963;-69
2023/08/21 07:32:06;;;;;;;;;;;25.90;99.90;;;;;;5073658;28;19963;-69
2023/08/21 07:34:34;;;;;;;;;;;26.00;99.90;;;;;;5073649;28;19971;-69
2023/08/21 07:37:02;;;;;;;;;;;26.10;99.90;;;;;;5073233;28;19962;-69
2023/08/21 07:39:31;;;;;;;;;;;26.20;99.90;;;;;;5073419;28;19963;-69
2023/08/21 07:41:59;;;;;;;;;;;26.30;99.90;;;;;;5073568;28;20357;-69
2023/08/21 07:44:27;;;;;;;;;;;26.30;99.90;;;;;;5073463;28;20333;-70
2023/08/21 07:46:55;;;;;;;;;;;26.40;99.90;;;;;;5072936;28;20339;-69
2023/08/21 07:49:23;;;;;;;;;;;26.50;99.90;;;;;;5073230;28;19970;-69
2023/08/21 07:51:50;;;;;;;;;;;26.50;99.90;;;;;;5073185;28;19977;-69
2023/08/21 07:54:18;;;;;;;;;;;26.60;99.90;;;;;;5073309;28;19963;-69
2023/08/21 07:56:47;;;;;;;;;;;26.70;99.90;;;;;;5073032;28;19967;-69
2023/08/21 07:59:15;;;;;;;;;;;26.80;99.90;;;;;;5073183;28;19970;-68
2023/08/21 08:01:43;;;;;;;;;;;26.90;99.90;;;;;;5072667;28;19962;-69
2023/08/21 08:04:11;;;;;;;;;;;27.00;99.90;;;;;;5072994;28;19962;-69
2023/08/21 08:06:39;;;;;;;;;;;27.20;99.90;;;;;;5072759;28;20503;-69
2023/08/21 08:09:07;;;;;;;;;;;27.40;99.90;;;;;;5064835;28;20012;-68
2023/08/21 08:11:35;;;;;;;;;;;27.50;99.90;;;;;;5071924;28;19962;-69
2023/08/21 08:14:04;;;;;;;;;;;27.60;99.90;;;;;;5072527;28;19967;-69
2023/08/21 08:16:32;;;;;;;;;;;27.70;99.90;;;;;;5072425;28;20810;-67
2023/08/21 08:18:59;;;;;;;;;;;27.90;99.90;;;;;;5072694;28;19967;-69
2023/08/21 08:21:27;;;;;;;;;;;27.90;99.90;;;;;;5072543;28;19967;-69
2023/08/21 08:23:55;;;;;;;;;;;28.00;99.90;;;;;;5072586;28;20433;-68
2023/08/21 08:26:23;;;;;;;;;;;28.10;99.90;;;;;;5072562;28;19962;-68
2023/08/21 08:28:50;;;;;;;;;;;28.30;99.90;;;;;;5071894;28;19971;-69
2023/08/21 08:31:20;;;;;;;;;;;28.30;99.90;;;;;;5072146;28;19996;-69
2023/08/21 08:33:48;;;;;;;;;;;28.50;99.90;;;;;;5072168;28;19967;-66
2023/08/21 08:36:16;;;;;;;;;;;28.60;99.90;;;;;;5072348;28;19963;-69
2023/08/21 08:38:44;;;;;;;;;;;28.60;99.90;;;;;;5071852;28;20331;-67
2023/08/21 08:41:12;;;;;;;;;;;28.80;99.90;;;;;;5071979;28;19967;-69
2023/08/21 08:43:41;;;;;;;;;;;29.00;99.90;;;;;;5072079;28;20444;-69
2023/08/21 08:46:09;;;;;;;;;;;29.20;99.90;;;;;;5072145;28;19962;-69
2023/08/21 08:48:38;;;;;;;;;;;29.40;99.90;;;;;;5071795;28;19962;-69
2023/08/21 08:51:06;;;;;;;;;;;29.60;99.90;;;;;;5071762;28;19989;-69
2023/08/21 08:53:35;;;;;;;;;;;29.80;99.90;;;;;;5071952;28;19977;-69
2023/08/21 08:56:02;;;;;;;;;;;29.90;99.90;;;;;;5071841;28;19966;-69
2023/08/21 08:58:30;;;;;;;;;;;29.90;99.90;;;;;;5071731;28;20574;-69
2023/08/21 09:00:58;;;;;;;;;;;30.00;99.90;;;;;;5071412;28;19978;-69
2023/08/21 09:03:26;;;;;;;;;;;30.20;99.90;;;;;;5072331;28;19970;-68
2023/08/21 09:05:59;;;;;;;;;;;30.20;99.90;;;;;;5071775;28;20433;-70
2023/08/21 09:08:27;;;;;;;;;;;30.20;99.90;;;;;;5071751;28;20002;-68
2023/08/21 09:10:55;;;;;;;;;;;30.20;99.90;;;;;;5071490;28;20020;-69
2023/08/21 09:13:23;;;;;;;;;;;30.50;99.90;;;;;;5071784;28;19966;-69
2023/08/21 09:15:54;;;;;;;;;;;30.80;99.90;;;;;;5071651;28;20016;-69
2023/08/21 09:18:22;;;;;;;;;;;30.90;99.90;;;;;;5071242;28;20404;-68
2023/08/21 09:20:50;;;;;;;;;;;31.00;99.90;;;;;;5071284;28;19970;-69
2023/08/21 09:23:19;;;;;;;;;;;31.20;99.90;;;;;;5071610;28;20070;-69
2023/08/21 09:25:48;;;;;;;;;;;31.50;99.90;;;;;;5071549;28;19978;-69
2023/08/21 09:28:19;;;;;;;;;;;31.60;99.90;;;;;;5071302;28;19962;-69
2023/08/21 09:30:48;;;;;;;;;;;31.60;99.90;;;;;;5071331;28;19967;-69
2023/08/21 09:33:20;;;;;;;;;;;31.60;99.90;;;;;;5071460;28;20016;-69
2023/08/21 09:35:49;;;;;;;;;;;31.60;99.90;;;;;;5071359;28;19975;-68
2023/08/21 09:38:18;;;;;;;;;;;31.90;99.90;;;;;;5071241;28;19963;-70
2023/08/21 09:40:52;;;;;;;;;;;32.20;99.90;;;;;;5071290;28;20036;-69
2023/08/21 09:43:20;;;;;;;;;;;32.40;99.90;;;;;;5064167;28;19968;-68
2023/08/21 09:45:50;;;;;;;;;;;32.50;99.90;;;;;;5071842;28;19985;-69
2023/08/21 09:48:18;;;;;;;;;;;32.60;99.90;;;;;;5071201;28;19962;-69
2023/08/21 09:50:47;;;;;;;;;;;32.70;99.90;;;;;;5071158;28;20436;-67
2023/08/21 09:53:14;;;;;;;;;;;32.70;99.90;;;;;;5071326;28;19950;-68
2023/08/21 09:55:42;;;;;;;;;;;32.70;99.90;;;;;;5071396;28;19947;-68
2023/08/21 09:58:12;;;;;;;;;;;32.80;99.90;;;;;;5070859;28;19994;-69
2023/08/21 10:00:40;;;;;;;;;;;32.80;99.90;;;;;;5071228;28;20328;-69
2023/08/21 10:03:09;;;;;;;;;;;33.10;99.90;;;;;;5071050;28;19950;-70
2023/08/21 10:05:39;;;;;;;;;;;33.10;99.90;;;;;;5071143;28;19963;-69
2023/08/21 10:08:07;;;;;;;;;;;33.30;99.90;;;;;;5071149;28;20383;-69
2023/08/21 10:10:36;;;;;;;;;;;33.40;99.90;;;;;;5070950;28;19953;-69
2023/08/21 10:13:05;;;;;;;;;;;33.50;99.90;;;;;;5070988;28;20004;-69
2023/08/21 10:15:35;;;;;;;;;;;33.60;99.90;;;;;;5071217;28;19947;-69
2023/08/21 10:18:18;;;;;;;;;;;34.00;99.90;;;;;;5070575;28;19985;-69
2023/08/21 10:20:45;;;;;;;;;;;34.30;99.90;;;;;;5071003;28;19924;-69
2023/08/21 10:23:24;;;;;;;;;;;34.40;99.90;;;;;;5070835;28;19952;-69
2023/08/21 10:25:55;;;;;;;;;;;34.50;99.90;;;;;;5071072;28;19961;-69
2023/08/21 10:28:42;;;;;;;;;;;34.70;99.90;;;;;;5063862;28;20039;-69
2023/08/21 10:31:28;;;;;;;;;;;34.90;99.90;;;;;;5070591;28;19958;-69
2023/08/21 10:33:58;;;;;;;;;;;34.70;99.90;;;;;;5071630;28;19931;-69
2023/08/21 10:37:04;;;;;;;;;;;34.50;99.90;;;;;;5074587;28;20374;-69
2023/08/21 10:39:33;;;;;;;;;;;34.60;99.90;;;;;;5074394;28;19928;-69
2023/08/21 10:42:02;;;;;;;;;;;34.60;99.90;;;;;;5074463;28;20057;-68
2023/08/21 10:44:37;;;;;;;;;;;34.60;99.90;;;;;;5074605;28;20027;-69
2023/08/21 10:47:14;;;;;;;;;;;34.40;99.90;;;;;;5074482;28;19934;-69
2023/08/21 10:49:43;;;;;;;;;;;34.30;99.90;;;;;;5074192;28;19971;-69
2023/08/21 10:52:11;;;;;;;;;;;34.20;99.90;;;;;;5074467;28;19925;-69
2023/08/21 10:54:50;;;;;;;;;;;34.20;99.90;;;;;;5074388;28;19929;-69
2023/08/21 10:57:18;;;;;;;;;;;34.20;99.90;;;;;;5074219;28;19928;-69
2023/08/21 10:59:52;;;;;;;;;;;34.50;99.90;;;;;;5073848;28;19932;-69
2023/08/21 11:02:20;;;;;;;;;;;34.60;99.90;;;;;;5074137;28;19925;-69
2023/08/21 11:04:50;;;;;;;;;;;34.90;99.90;;;;;;5074277;28;19931;-69
2023/08/21 11:07:18;;;;;;;;;;;35.40;99.90;;;;;;5073964;28;19926;-69
2023/08/21 11:09:46;;;;;;;;;;;35.80;99.70;;;;;;5073858;28;20298;-69
2023/08/21 11:12:15;;;;;;;;;;;35.80;98.40;;;;;;5074121;28;20430;-69
2023/08/21 11:14:43;;;;;;;;;;;36.10;97.70;;;;;;5074269;28;19931;-69
2023/08/21 11:17:11;;;;;;;;;;;36.00;96.90;;;;;;5073498;28;19928;-69
2023/08/21 11:19:39;;;;;;;;;;;36.20;97.10;;;;;;5073620;28;20075;-69
2023/08/21 11:22:09;;;;;;;;;;;36.50;97.30;;;;;;5073976;28;20432;-69
2023/08/21 11:24:44;;;;;;;;;;;36.50;97.50;;;;;;5073864;28;20382;-70
2023/08/21 11:27:12;;;;;;;;;;;36.90;97.90;;;;;;5073642;28;19943;-70
2023/08/21 11:29:41;;;;;;;;;;;37.10;96.10;;;;;;5073577;28;19925;-70
2023/08/21 11:32:09;;;;;;;;;;;37.50;95.60;;;;;;5073765;28;20398;-69
2023/08/21 11:34:37;;;;;;;;;;;37.40;96.00;;;;;;5073788;28;19925;-70
2023/08/21 11:37:05;;;;;;;;;;;37.20;94.60;;;;;;5073668;28;19936;-70
2023/08/21 11:39:42;;;;;;;;;;;37.10;94.30;;;;;;5073343;28;20015;-69
2023/08/21 11:42:11;;;;;;;;;;;37.40;94.90;;;;;;5073597;28;20322;-70
2023/08/21 11:44:46;;;;;;;;;;;37.30;93.60;;;;;;5073184;28;19924;-69
2023/08/21 11:47:14;;;;;;;;;;;37.60;93.20;;;;;;5072461;28;19970;-69
2023/08/21 11:49:43;;;;;;;;;;;37.60;92.90;;;;;;5073150;28;19924;-70
2023/08/21 11:52:11;;;;;;;;;;;37.50;92.40;;;;;;5073405;28;19931;-70
2023/08/21 11:54:40;;;;;;;;;;;37.30;92.60;;;;;;5073350;28;19970;-69
2023/08/21 11:57:12;;;;;;;;;;;37.80;92.00;;;;;;5072929;28;20028;-70
2023/08/21 11:59:40;;;;;;;;;;;37.90;92.10;;;;;;5073139;28;19924;-69
2023/08/21 12:02:14;;;;;;;;;;;38.20;92.10;;;;;;5072888;28;19924;-69
2023/08/21 12:04:42;;;;;;;;;;;38.40;92.60;;;;;;5073203;28;19924;-69
2023/08/21 12:07:11;;;;;;;;;;;38.40;91.20;;;;;;5072821;28;19966;-69
2023/08/21 12:09:39;;;;;;;;;;;38.50;90.80;;;;;;5072637;28;19929;-69
2023/08/21 12:12:07;;;;;;;;;;;38.50;90.40;;;;;;5073078;28;19925;-70
2023/08/21 12:14:39;;;;;;;;;;;38.60;90.00;;;;;;5073406;28;20345;-69
2023/08/21 12:17:07;;;;;;;;;;;38.80;90.30;;;;;;5072471;28;19928;-70
2023/08/21 12:19:35;;;;;;;;;;;38.50;90.10;;;;;;5072953;28;20006;-69
2023/08/21 12:22:03;;;;;;;;;;;38.60;89.50;;;;;;5072780;28;20045;-69
2023/08/21 12:24:30;;;;;;;;;;;38.80;90.90;;;;;;5064922;28;19929;-69
2023/08/21 12:26:58;;;;;;;;;;;38.70;88.20;;;;;;5072551;28;20303;-69
2023/08/21 12:29:26;;;;;;;;;;;38.80;90.40;;;;;;5072143;28;20314;-69
2023/08/21 12:31:55;;;;;;;;;;;38.50;90.10;;;;;;5072429;28;20410;-69
2023/08/21 12:34:23;;;;;;;;;;;38.70;90.70;;;;;;5072256;28;19925;-69
2023/08/21 12:36:51;;;;;;;;;;;38.70;89.20;;;;;;5072477;28;20379;-68
2023/08/21 12:39:19;;;;;;;;;;;38.80;89.70;;;;;;5072059;28;19978;-69
2023/08/21 12:41:47;;;;;;;;;;;39.00;89.80;;;;;;5072333;28;19935;-69
2023/08/21 12:44:14;;;;;;;;;;;39.20;85.90;;;;;;5072157;28;20421;-69
2023/08/21 12:46:42;;;;;;;;;;;39.20;87.30;;;;;;5072213;28;20319;-69
2023/08/21 12:49:12;;;;;;;;;;;39.50;85.20;;;;;;5071933;28;19939;-69
2023/08/21 12:51:40;;;;;;;;;;;39.50;84.60;;;;;;5071973;28;20294;-69
2023/08/21 12:54:08;;;;;;;;;;;39.30;85.90;;;;;;5072154;28;19933;-69
2023/08/21 12:56:36;;;;;;;;;;;38.80;84.30;;;;;;5071812;28;19924;-68
2023/08/21 12:59:04;;;;;;;;;;;38.50;85.60;;;;;;5072099;28;19947;-67
2023/08/21 13:01:34;;;;;;;;;;;38.80;87.50;;;;;;5071379;28;19955;-69
2023/08/21 13:04:02;;;;;;;;;;;39.10;85.10;;;;;;5071963;28;19999;-70
2023/08/21 13:06:32;;;;;;;;;;;39.40;87.50;;;;;;5071698;28;20027;-69
2023/08/21 13:09:00;;;;;;;;;;;39.20;84.10;;;;;;5071830;28;19924;-69
2023/08/21 13:11:29;;;;;;;;;;;38.80;83.90;;;;;;5071318;28;20176;-68
2023/08/21 13:13:57;;;;;;;;;;;38.60;84.00;;;;;;5071660;28;19928;-69
2023/08/21 13:16:25;;;;;;;;;;;38.60;84.50;;;;;;5071709;28;19924;-69
2023/08/21 13:18:52;;;;;;;;;;;38.60;83.00;;;;;;5072147;28;19925;-69
2023/08/21 13:21:20;;;;;;;;;;;38.20;83.70;;;;;;5071079;28;20371;-69
2023/08/21 13:23:49;;;;;;;;;;;38.20;83.60;;;;;;5071752;28;19981;-69
2023/08/21 13:26:17;;;;;;;;;;;38.20;83.60;;;;;;5071465;28;19929;-69
2023/08/21 13:28:45;;;;;;;;;;;38.30;86.00;;;;;;5071605;28;20399;-69
2023/08/21 13:31:13;;;;;;;;;;;38.80;83.30;;;;;;5070817;28;20423;-69
2023/08/21 13:33:46;;;;;;;;;;;39.10;84.70;;;;;;5071598;28;19931;-69
2023/08/21 13:36:20;;;;;;;;;;;39.50;82.00;;;;;;5071484;28;19935;-70
2023/08/21 13:38:53;;;;;;;;;;;39.70;80.20;;;;;;5071622;28;20363;-70
2023/08/21 13:41:20;;;;;;;;;;;39.70;82.00;;;;;;5071095;28;19924;-69
2023/08/21 13:43:48;;;;;;;;;;;39.50;80.00;;;;;;5071400;28;19929;-69
2023/08/21 13:46:17;;;;;;;;;;;39.60;80.50;;;;;;5071312;28;19929;-70
2023/08/21 13:48:45;;;;;;;;;;;39.50;79.50;;;;;;5071535;28;19929;-69
2023/08/21 13:51:13;;;;;;;;;;;39.70;79.20;;;;;;5070934;28;20019;-69
2023/08/21 13:53:41;;;;;;;;;;;39.90;79.00;;;;;;5071377;28;20387;-69
2023/08/21 13:56:10;;;;;;;;;;;39.90;77.90;;;;;;5071336;28;19958;-70
2023/08/21 13:58:38;;;;;;;;;;;39.50;77.50;;;;;;5063412;28;19954;-69
2023/08/21 14:01:06;;;;;;;;;;;39.30;78.10;;;;;;5070688;28;19974;-69
2023/08/21 14:03:34;;;;;;;;;;;39.40;78.90;;;;;;5071103;28;20318;-69
2023/08/21 14:06:02;;;;;;;;;;;39.80;80.10;;;;;;5071090;28;19978;-69
2023/08/21 14:08:30;;;;;;;;;;;40.00;79.00;;;;;;5071135;28;20371;-69
2023/08/21 14:10:58;;;;;;;;;;;40.30;78.10;;;;;;5075124;28;19929;-70
2023/08/21 14:13:27;;;;;;;;;;;40.70;78.80;;;;;;5075319;28;20640;-70
2023/08/21 14:15:55;;;;;;;;;;;40.70;76.00;;;;;;5074814;28;19932;-70
2023/08/21 14:18:24;;;;;;;;;;;40.80;77.10;;;;;;5074953;28;19924;-69
2023/08/21 14:20:52;;;;;;;;;;;40.60;79.30;;;;;;5075043;28;19932;-69
2023/08/21 14:23:20;;;;;;;;;;;40.70;78.30;;;;;;5074961;28;19970;-70
2023/08/21 14:25:48;;;;;;;;;;;40.80;76.60;;;;;;5074847;28;19928;-69